• Join FlightAware (Why Join?)
  • Login
  • US Flag 
10:29AM EDT


 

Airport Tracker/Info


-or-


 

Live Flight TrackerFlight Track Log ✈ FLG3757 ✈ 15-Jan-2014 ✈ KBGM - KDTW

Flight Track Log - Related Links

Times and Time Zones

All times are in EST time to prevent confusion due to time zone crossing. See the FLG3757 flight status page for this flight to view local times or setup timezone preferences in your user account.

Time Position Orientation Groundspeed Altitude Reporting Facility
EST Latitude Longitude Course Direction KTS MPH feet Rate Location/Type
06:27AM 42.1822 -75.9706 289° West 145 167 3,100  Level New York Center
06:28AM 42.1836 -76.0322 272° West 179 206 4,900 1,800 Climbing New York Center
06:29AM 42.2069 -76.1150 291° West 204 235 6,800 2,460 Climbing New York Center
06:30AM 42.2342 -76.2069 292° West 239 275 9,900 2,280 Climbing New York Center
06:32AM 42.2897 -76.3917 292° West 305 351 13,300 1,860 Climbing Cleveland Center
06:33AM 42.2285 -76.6560 289° West  Level Estimated
06:33AM 42.3233 -76.5044 292° West 322 371 15,300  Level Cleveland Center
06:34AM 42.3586 -76.6214 292° West 333 383 17,100 1,740 Climbing Cleveland Center
06:35AM 42.3942 -76.7397 292° West 340 391 18,900 1,680 Climbing Cleveland Center
06:36AM 42.4281 -76.8586 291° West 339 390 20,600 1,560 Climbing Cleveland Center
06:37AM 42.4633 -76.9797 292° West 346 398 22,100 1,200 Climbing Cleveland Center
06:38AM 42.4986 -77.1019 291° West 349 402 23,100 780 Climbing Cleveland Center
06:39AM 42.5356 -77.2317 291° West 364 419 23,700 660 Climbing Cleveland Center
06:40AM 42.5733 -77.3639 291° West 373 429 24,500 720 Climbing Cleveland Center
06:41AM 42.5844 -77.5150 276° West 366 421 25,200 840 Climbing Cleveland Center
06:42AM 42.5914 -77.6500 274° West 361 415 26,300 1,080 Climbing Cleveland Center
06:43AM 42.5986 -77.7792 274° West 350 403 27,400 840 Climbing Cleveland Center
06:44AM 42.6044 -77.9039 274° West 342 394 28,000 240 Climbing Cleveland Center
06:45AM 42.6103 -78.0331 274° West 343 395 28,000  Level Cleveland Center
06:46AM 42.6156 -78.1669 273° West 352 405 28,000  Level Cleveland Center
06:47AM 42.6217 -78.3025 274° West 359 413 28,000  Level Cleveland Center
06:48AM 42.6269 -78.4397 273° West 364 419 28,000  Level Cleveland Center
06:49AM 42.6350 -78.6081 274° West 374 430 28,000  Level Cleveland Center
06:50AM 42.6414 -78.7456 274° West 368 423 28,000  Level Cleveland Center
06:51AM 42.6461 -78.8847 273° West 370 426 28,000  Level Cleveland Center
06:52AM 42.6514 -79.0239 273° West 369 425 28,000  Level Cleveland Center
06:53AM 42.6569 -79.1644 273° West 372 428 28,000  Level Cleveland Center
06:54AM 42.6625 -79.3039 273° West 371 427 28,000  Level Cleveland Center
06:55AM 42.6675 -79.4444 273° West 374 430 28,000  Level Cleveland Center
06:56AM 42.6717 -79.5886 272° West 381 438 28,000  Level Cleveland Center
06:57AM 42.6764 -79.7300 273° West 376 433 28,000  Level Cleveland Center
06:58AM 42.6806 -79.8736 272° West 381 438 28,000  Level Cleveland Center
06:59AM 42.6833 -80.0314 271° West 388 447 28,000  Level Cleveland Center
07:00AM 42.6878 -80.1792 272° West 389 448 28,000  Level Cleveland Center
07:01AM 42.6928 -80.3269 273° West 389 448 28,000 -240 Level Cleveland Center
07:03AM 42.6958 -80.4767 272° West 393 452 27,600 -720 Descending Cleveland Center
07:04AM 42.7003 -80.6258 272° West 393 452 26,600 -1,020 Descending Cleveland Center
07:05AM 42.7028 -80.7733 271° West 389 448 25,600 -1,080 Descending Cleveland Center
07:06AM 42.7008 -80.9267 269° West 392 451 24,500 -1,140 Descending Cleveland Center
07:07AM 42.6833 -81.0861 262° West 375 432 23,400 -1,080 Descending Cleveland Center
07:08AM 42.6700 -81.2164 262° West 348 400 22,400 -1,020 Descending Cleveland Center
07:09AM 42.6542 -81.3419 260° West 337 388 21,400 -1,020 Descending Cleveland Center
07:10AM 42.6394 -81.4700 261° West 340 391 20,400 -720 Descending Cleveland Center
07:11AM 42.6242 -81.5981 261° West 342 394 20,000 -240 Descending Cleveland Center
07:12AM 42.6069 -81.7328 260° West 359 413 20,000  Level Cleveland Center
07:13AM 42.5908 -81.8722 261° West 371 427 20,000  Level Cleveland Center
07:14AM 42.5747 -82.0086 261° West 368 423 20,000 -1,020 Level Cleveland Center
07:15AM 42.5589 -82.1436 261° West 364 419 18,000 -1,980 Descending Cleveland Center
07:16AM 42.5408 -82.2731 259° West 354 407 16,000 -2,160 Descending Cleveland Center
07:16AM 42.5353 -82.3322 263° West 347 399 15,100 -2,580 Descending Cleveland Center
07:16AM 42.5303 -82.3739 261° West 348 400 14,400 -1,620 Descending Cleveland Center
07:17AM 42.5258 -82.4011 258° West 347 399 14,000 -1,560 Descending Cleveland Center
07:18AM 42.5094 -82.5286 260° West 346 398 12,200 -1,500 Descending Cleveland Center
07:18AM 42.4817 -82.6222 248° West 339 390 11,600 -1,020 Descending Cleveland Center
07:19AM 42.4650 -82.6644 242° Southwest 334 384 11,200 -1,020 Descending Cleveland Center
07:19AM 42.4450 -82.7222 245° Southwest 259 298 10,600 -1,080 Descending Cleveland Center
07:20AM 42.4333 -82.7539 243° Southwest 281 323 10,100 -1,500 Descending Cleveland Center
07:20AM 42.4161 -82.8061 246° West 245 282 9,100 -1,500 Descending Cleveland Center
07:21AM 42.4039 -82.8356 241° Southwest 250 288 8,600 -1,500 Descending Cleveland Center
07:22AM 42.3819 -82.8975 244° Southwest 245 282 7,500 -1,500 Descending Cleveland Center
07:22AM 42.3794 -82.9211 262° West 250 288 7,100 -600 Descending Cleveland Center
07:23AM 42.3903 -82.9833 283° West 213 245 6,900 -420 Descending Cleveland Center
07:23AM 42.3933 -83.0014 283° West 224 258 6,700 -900 Descending Cleveland Center
07:24AM 42.4036 -83.0586 284° West 194 223 6,000 -900 Descending Cleveland Center
07:24AM 42.4050 -83.0719 278° West 200 230 5,800 -1,260 Descending Cleveland Center
07:25AM 42.4103 -83.1358 276° West 191 220 4,600 -1,260 Descending Cleveland Center
07:25AM 42.4094 -83.1406 257° West 189 217 4,500 -900 Descending Cleveland Center
07:26AM 42.3928 -83.2014 250° West 179 206 3,700 -840 Descending Cleveland Center
07:26AM 42.3919 -83.2039 246° West 184 212 3,700 -540 Level Cleveland Center
07:27AM 42.3525 -83.2353 210° Southwest 159 183 3,200 -600 Descending Cleveland Center
07:27AM 42.3447 -83.2425 214° Southwest 172 198 3,100 -240 Descending Cleveland Center
07:28AM 42.3214 -83.2592 208° Southwest 150 173 3,000 -300 Descending Cleveland Center
07:28AM 42.3089 -83.2689 210° Southwest 158 182 2,800 -720 Descending Cleveland Center
07:29AM 42.2858 -83.2853 208° Southwest 123 142 2,300 -720 Descending Cleveland Center
07:29AM 42.2778 -83.2917 210° Southwest 141 162 2,100 -720 Descending Cleveland Center
07:30AM 42.2569 -83.3067 208° Southwest 123 142 1,600 -720 Descending Cleveland Center
07:30AM 42.2478 -83.3136 209° Southwest 129 148 1,400 -720 Descending Cleveland Center
07:31AM 42.2281 -83.3278 208° Southwest 122 140 900 -420 Descending Cleveland Center
07:31AM 42.2214 -83.3331 210° Southwest 125 144 1,000 240 Climbing Cleveland Center
07:33AM 42.2124 -83.3534 211° Southwest  Level Estimated
07:40AM 42.2124 -83.3534 211° Southwest  Level Estimated